sensor_id;sensor_type;location;lat;lon;timestamp;P1;durP1;ratioP1;P2;durP2;ratioP2
62933;SDS011;49038;47.600;19.242;2023-07-13T00:00:54;4.78;;;2.58;;
62933;SDS011;49038;47.600;19.242;2023-07-13T00:03:59;7.25;;;2.40;;
62933;SDS011;49038;47.600;19.242;2023-07-13T00:07:02;5.15;;;2.80;;
62933;SDS011;49038;47.600;19.242;2023-07-13T00:10:04;2.75;;;2.33;;
62933;SDS011;49038;47.600;19.242;2023-07-13T00:13:08;4.97;;;2.20;;
62933;SDS011;49038;47.600;19.242;2023-07-13T00:16:11;3.28;;;2.42;;
62933;SDS011;49038;47.600;19.242;2023-07-13T00:19:16;4.82;;;2.20;;
62933;SDS011;49038;47.600;19.242;2023-07-13T00:22:19;3.20;;;1.77;;
62933;SDS011;49038;47.600;19.242;2023-07-13T00:25:22;2.17;;;1.65;;
62933;SDS011;49038;47.600;19.242;2023-07-13T00:28:26;5.35;;;2.00;;
62933;SDS011;49038;47.600;19.242;2023-07-13T00:31:28;3.42;;;2.80;;
62933;SDS011;49038;47.600;19.242;2023-07-13T00:34:30;3.83;;;1.90;;
62933;SDS011;49038;47.600;19.242;2023-07-13T00:37:33;3.62;;;2.05;;
62933;SDS011;49038;47.600;19.242;2023-07-13T00:40:37;3.60;;;1.87;;
62933;SDS011;49038;47.600;19.242;2023-07-13T00:43:40;4.93;;;2.37;;
62933;SDS011;49038;47.600;19.242;2023-07-13T00:46:42;2.30;;;1.60;;
62933;SDS011;49038;47.600;19.242;2023-07-13T00:49:45;2.75;;;1.80;;
62933;SDS011;49038;47.600;19.242;2023-07-13T00:52:48;4.50;;;1.87;;
62933;SDS011;49038;47.600;19.242;2023-07-13T00:55:53;6.25;;;1.80;;
62933;SDS011;49038;47.600;19.242;2023-07-13T00:58:56;3.03;;;2.17;;
62933;SDS011;49038;47.600;19.242;2023-07-13T01:01:59;4.45;;;1.77;;
62933;SDS011;49038;47.600;19.242;2023-07-13T01:05:08;4.93;;;1.75;;
62933;SDS011;49038;47.600;19.242;2023-07-13T01:08:15;4.40;;;1.65;;
62933;SDS011;49038;47.600;19.242;2023-07-13T01:11:19;3.85;;;1.60;;
62933;SDS011;49038;47.600;19.242;2023-07-13T01:14:23;7.53;;;1.60;;
62933;SDS011;49038;47.600;19.242;2023-07-13T01:17:26;3.65;;;1.85;;
62933;SDS011;49038;47.600;19.242;2023-07-13T01:20:29;3.03;;;1.58;;
62933;SDS011;49038;47.600;19.242;2023-07-13T01:23:32;4.50;;;1.50;;
62933;SDS011;49038;47.600;19.242;2023-07-13T01:26:34;3.55;;;1.48;;
62933;SDS011;49038;47.600;19.242;2023-07-13T01:29:37;2.42;;;1.45;;
62933;SDS011;49038;47.600;19.242;2023-07-13T01:32:45;4.20;;;2.42;;
62933;SDS011;49038;47.600;19.242;2023-07-13T01:35:47;1.80;;;1.50;;
62933;SDS011;49038;47.600;19.242;2023-07-13T01:38:49;1.83;;;1.40;;
62933;SDS011;49038;47.600;19.242;2023-07-13T01:41:52;2.65;;;1.50;;
62933;SDS011;49038;47.600;19.242;2023-07-13T01:44:54;5.20;;;1.52;;
62933;SDS011;49038;47.600;19.242;2023-07-13T01:47:57;2.78;;;1.65;;
62933;SDS011;49038;47.600;19.242;2023-07-13T01:51:00;1.48;;;1.35;;
62933;SDS011;49038;47.600;19.242;2023-07-13T01:54:02;1.98;;;1.77;;
62933;SDS011;49038;47.600;19.242;2023-07-13T01:57:04;2.83;;;1.70;;
62933;SDS011;49038;47.600;19.242;2023-07-13T02:00:08;6.22;;;1.70;;
62933;SDS011;49038;47.600;19.242;2023-07-13T02:03:11;10.95;;;2.58;;
62933;SDS011;49038;47.600;19.242;2023-07-13T02:06:16;2.40;;;1.67;;
62933;SDS011;49038;47.600;19.242;2023-07-13T02:09:18;2.33;;;1.70;;
62933;SDS011;49038;47.600;19.242;2023-07-13T02:12:21;2.70;;;1.67;;
62933;SDS011;49038;47.600;19.242;2023-07-13T02:15:23;2.22;;;1.98;;
62933;SDS011;49038;47.600;19.242;2023-07-13T02:18:25;2.00;;;1.40;;
62933;SDS011;49038;47.600;19.242;2023-07-13T02:21:28;1.58;;;1.30;;
62933;SDS011;49038;47.600;19.242;2023-07-13T02:24:30;2.40;;;1.40;;
62933;SDS011;49038;47.600;19.242;2023-07-13T02:27:33;1.75;;;1.40;;
62933;SDS011;49038;47.600;19.242;2023-07-13T02:30:35;4.85;;;1.58;;
62933;SDS011;49038;47.600;19.242;2023-07-13T02:33:38;2.10;;;1.58;;
62933;SDS011;49038;47.600;19.242;2023-07-13T02:36:40;3.00;;;1.55;;
62933;SDS011;49038;47.600;19.242;2023-07-13T02:39:42;2.17;;;1.50;;
62933;SDS011;49038;47.600;19.242;2023-07-13T02:42:45;2.35;;;1.25;;
62933;SDS011;49038;47.600;19.242;2023-07-13T02:45:47;2.17;;;1.33;;
62933;SDS011;49038;47.600;19.242;2023-07-13T02:48:49;4.60;;;1.80;;
62933;SDS011;49038;47.600;19.242;2023-07-13T02:51:52;3.50;;;1.42;;
62933;SDS011;49038;47.600;19.242;2023-07-13T02:54:54;2.22;;;1.80;;
62933;SDS011;49038;47.600;19.242;2023-07-13T02:57:56;3.35;;;1.90;;
62933;SDS011;49038;47.600;19.242;2023-07-13T03:00:59;2.30;;;1.73;;
62933;SDS011;49038;47.600;19.242;2023-07-13T03:04:01;4.70;;;1.98;;
62933;SDS011;49038;47.600;19.242;2023-07-13T03:07:04;3.40;;;1.80;;
62933;SDS011;49038;47.600;19.242;2023-07-13T03:10:07;2.70;;;2.20;;
62933;SDS011;49038;47.600;19.242;2023-07-13T03:13:10;1.98;;;1.60;;
62933;SDS011;49038;47.600;19.242;2023-07-13T03:16:12;3.40;;;1.87;;
62933;SDS011;49038;47.600;19.242;2023-07-13T03:19:20;2.65;;;2.28;;
62933;SDS011;49038;47.600;19.242;2023-07-13T03:22:23;4.22;;;2.58;;
62933;SDS011;49038;47.600;19.242;2023-07-13T03:25:25;3.12;;;1.83;;
62933;SDS011;49038;47.600;19.242;2023-07-13T03:28:27;2.20;;;1.67;;
62933;SDS011;49038;47.600;19.242;2023-07-13T03:31:33;3.85;;;2.17;;
62933;SDS011;49038;47.600;19.242;2023-07-13T03:34:36;2.65;;;2.10;;
62933;SDS011;49038;47.600;19.242;2023-07-13T03:37:39;6.43;;;2.15;;
62933;SDS011;49038;47.600;19.242;2023-07-13T03:40:45;4.90;;;2.10;;
62933;SDS011;49038;47.600;19.242;2023-07-13T03:43:47;2.80;;;1.75;;
62933;SDS011;49038;47.600;19.242;2023-07-13T03:46:50;2.10;;;1.73;;
62933;SDS011;49038;47.600;19.242;2023-07-13T03:49:52;2.78;;;2.00;;
62933;SDS011;49038;47.600;19.242;2023-07-13T03:52:55;4.78;;;1.58;;
62933;SDS011;49038;47.600;19.242;2023-07-13T03:55:58;3.47;;;2.12;;
62933;SDS011;49038;47.600;19.242;2023-07-13T03:59:01;5.90;;;1.73;;
62933;SDS011;49038;47.600;19.242;2023-07-13T04:02:04;5.25;;;2.08;;
62933;SDS011;49038;47.600;19.242;2023-07-13T04:05:07;4.62;;;2.12;;
62933;SDS011;49038;47.600;19.242;2023-07-13T04:08:09;2.10;;;1.65;;
62933;SDS011;49038;47.600;19.242;2023-07-13T04:11:11;3.10;;;1.70;;
62933;SDS011;49038;47.600;19.242;2023-07-13T04:14:13;7.30;;;2.50;;
62933;SDS011;49038;47.600;19.242;2023-07-13T04:17:16;2.75;;;1.75;;
62933;SDS011;49038;47.600;19.242;2023-07-13T04:20:18;3.58;;;1.85;;
62933;SDS011;49038;47.600;19.242;2023-07-13T04:23:22;7.30;;;2.30;;
62933;SDS011;49038;47.600;19.242;2023-07-13T04:26:25;2.87;;;1.77;;
62933;SDS011;49038;47.600;19.242;2023-07-13T04:29:27;4.32;;;2.15;;
62933;SDS011;49038;47.600;19.242;2023-07-13T04:32:30;3.08;;;2.10;;
62933;SDS011;49038;47.600;19.242;2023-07-13T04:35:32;2.87;;;1.80;;
62933;SDS011;49038;47.600;19.242;2023-07-13T04:38:35;2.92;;;1.50;;
62933;SDS011;49038;47.600;19.242;2023-07-13T04:41:37;3.25;;;2.15;;
62933;SDS011;49038;47.600;19.242;2023-07-13T04:44:40;3.47;;;1.92;;
62933;SDS011;49038;47.600;19.242;2023-07-13T04:47:42;3.78;;;1.90;;
62933;SDS011;49038;47.600;19.242;2023-07-13T04:50:45;3.40;;;1.62;;
62933;SDS011;49038;47.600;19.242;2023-07-13T04:53:48;2.95;;;1.73;;
62933;SDS011;49038;47.600;19.242;2023-07-13T04:56:52;5.93;;;2.30;;
62933;SDS011;49038;47.600;19.242;2023-07-13T04:59:54;2.70;;;2.12;;
62933;SDS011;49038;47.600;19.242;2023-07-13T05:02:57;3.12;;;1.98;;
62933;SDS011;49038;47.600;19.242;2023-07-13T05:06:01;3.65;;;1.87;;
62933;SDS011;49038;47.600;19.242;2023-07-13T05:09:05;4.10;;;2.37;;
62933;SDS011;49038;47.600;19.242;2023-07-13T05:12:09;4.00;;;2.12;;
62933;SDS011;49038;47.600;19.242;2023-07-13T05:15:11;3.50;;;2.10;;
62933;SDS011;49038;47.600;19.242;2023-07-13T05:18:14;4.45;;;2.00;;
62933;SDS011;49038;47.600;19.242;2023-07-13T05:21:16;4.07;;;1.77;;
62933;SDS011;49038;47.600;19.242;2023-07-13T05:24:19;7.80;;;2.35;;
62933;SDS011;49038;47.600;19.242;2023-07-13T05:27:26;1.80;;;1.70;;
62933;SDS011;49038;47.600;19.242;2023-07-13T05:30:29;2.97;;;1.87;;
62933;SDS011;49038;47.600;19.242;2023-07-13T05:33:31;3.85;;;2.10;;
62933;SDS011;49038;47.600;19.242;2023-07-13T05:36:33;5.60;;;1.80;;
62933;SDS011;49038;47.600;19.242;2023-07-13T05:39:36;3.08;;;2.00;;
62933;SDS011;49038;47.600;19.242;2023-07-13T05:42:38;3.83;;;1.20;;
62933;SDS011;49038;47.600;19.242;2023-07-13T05:45:41;2.92;;;1.52;;
62933;SDS011;49038;47.600;19.242;2023-07-13T05:48:43;6.43;;;1.80;;
62933;SDS011;49038;47.600;19.242;2023-07-13T05:51:45;1.73;;;1.48;;
62933;SDS011;49038;47.600;19.242;2023-07-13T05:54:47;2.78;;;1.58;;
62933;SDS011;49038;47.600;19.242;2023-07-13T05:57:50;4.55;;;1.52;;
62933;SDS011;49038;47.600;19.242;2023-07-13T06:01:03;1.90;;;1.20;;
62933;SDS011;49038;47.600;19.242;2023-07-13T06:04:07;2.50;;;1.20;;
62933;SDS011;49038;47.600;19.242;2023-07-13T06:07:10;1.75;;;1.10;;
62933;SDS011;49038;47.600;19.242;2023-07-13T06:10:12;1.30;;;1.15;;
62933;SDS011;49038;47.600;19.242;2023-07-13T06:13:15;1.90;;;1.48;;
62933;SDS011;49038;47.600;19.242;2023-07-13T06:16:17;2.12;;;1.10;;
62933;SDS011;49038;47.600;19.242;2023-07-13T06:19:19;4.43;;;1.75;;
62933;SDS011;49038;47.600;19.242;2023-07-13T06:22:22;2.65;;;1.30;;
62933;SDS011;49038;47.600;19.242;2023-07-13T06:25:25;1.08;;;0.93;;
62933;SDS011;49038;47.600;19.242;2023-07-13T06:28:28;2.67;;;0.90;;
62933;SDS011;49038;47.600;19.242;2023-07-13T06:31:32;1.92;;;1.08;;
62933;SDS011;49038;47.600;19.242;2023-07-13T06:34:34;4.03;;;0.90;;
62933;SDS011;49038;47.600;19.242;2023-07-13T06:37:36;1.25;;;0.93;;
62933;SDS011;49038;47.600;19.242;2023-07-13T06:40:39;1.30;;;0.90;;
62933;SDS011;49038;47.600;19.242;2023-07-13T06:43:41;1.40;;;1.00;;
62933;SDS011;49038;47.600;19.242;2023-07-13T06:46:43;2.72;;;0.85;;
62933;SDS011;49038;47.600;19.242;2023-07-13T06:49:46;1.00;;;0.90;;
62933;SDS011;49038;47.600;19.242;2023-07-13T06:52:48;1.23;;;1.05;;
62933;SDS011;49038;47.600;19.242;2023-07-13T06:55:50;1.70;;;1.27;;
62933;SDS011;49038;47.600;19.242;2023-07-13T06:58:53;1.92;;;1.20;;
62933;SDS011;49038;47.600;19.242;2023-07-13T07:01:55;2.55;;;1.65;;
62933;SDS011;49038;47.600;19.242;2023-07-13T07:04:58;3.25;;;1.15;;
62933;SDS011;49038;47.600;19.242;2023-07-13T07:08:00;1.60;;;1.30;;
62933;SDS011;49038;47.600;19.242;2023-07-13T07:11:03;1.12;;;1.02;;
62933;SDS011;49038;47.600;19.242;2023-07-13T07:14:05;3.00;;;1.33;;
62933;SDS011;49038;47.600;19.242;2023-07-13T07:17:07;5.03;;;1.52;;
62933;SDS011;49038;47.600;19.242;2023-07-13T07:20:10;3.83;;;1.50;;
62933;SDS011;49038;47.600;19.242;2023-07-13T07:23:13;1.33;;;1.20;;
62933;SDS011;49038;47.600;19.242;2023-07-13T07:26:16;2.12;;;1.33;;
62933;SDS011;49038;47.600;19.242;2023-07-13T07:29:18;2.97;;;1.55;;
62933;SDS011;49038;47.600;19.242;2023-07-13T07:32:24;1.67;;;1.10;;
62933;SDS011;49038;47.600;19.242;2023-07-13T07:35:29;3.05;;;1.30;;
62933;SDS011;49038;47.600;19.242;2023-07-13T07:38:36;2.15;;;1.25;;
62933;SDS011;49038;47.600;19.242;2023-07-13T07:41:39;2.95;;;1.40;;
62933;SDS011;49038;47.600;19.242;2023-07-13T07:44:44;2.70;;;1.30;;
62933;SDS011;49038;47.600;19.242;2023-07-13T07:47:47;1.55;;;1.27;;
62933;SDS011;49038;47.600;19.242;2023-07-13T07:50:49;4.57;;;1.40;;
62933;SDS011;49038;47.600;19.242;2023-07-13T07:53:51;1.77;;;1.10;;
62933;SDS011;49038;47.600;19.242;2023-07-13T07:56:54;1.92;;;1.17;;
62933;SDS011;49038;47.600;19.242;2023-07-13T07:59:59;2.03;;;0.80;;
62933;SDS011;49038;47.600;19.242;2023-07-13T08:03:04;1.23;;;0.98;;
62933;SDS011;49038;47.600;19.242;2023-07-13T08:06:09;1.45;;;0.90;;
62933;SDS011;49038;47.600;19.242;2023-07-13T08:09:32;1.92;;;1.08;;
62933;SDS011;49038;47.600;19.242;2023-07-13T08:12:37;1.70;;;1.10;;
62933;SDS011;49038;47.600;19.242;2023-07-13T08:15:43;2.70;;;1.20;;
62933;SDS011;49038;47.600;19.242;2023-07-13T08:18:46;1.65;;;1.40;;
62933;SDS011;49038;47.600;19.242;2023-07-13T08:21:48;1.10;;;1.00;;
62933;SDS011;49038;47.600;19.242;2023-07-13T08:24:50;1.30;;;1.00;;
62933;SDS011;49038;47.600;19.242;2023-07-13T08:27:58;2.05;;;1.30;;
62933;SDS011;49038;47.600;19.242;2023-07-13T08:31:02;1.77;;;1.25;;
62933;SDS011;49038;47.600;19.242;2023-07-13T08:34:04;2.37;;;1.20;;
62933;SDS011;49038;47.600;19.242;2023-07-13T08:37:07;1.35;;;1.20;;
62933;SDS011;49038;47.600;19.242;2023-07-13T08:40:10;1.98;;;1.30;;
62933;SDS011;49038;47.600;19.242;2023-07-13T08:43:15;2.30;;;1.05;;
62933;SDS011;49038;47.600;19.242;2023-07-13T08:46:20;2.47;;;1.15;;
62933;SDS011;49038;47.600;19.242;2023-07-13T08:49:30;3.60;;;1.20;;
62933;SDS011;49038;47.600;19.242;2023-07-13T08:52:36;1.80;;;1.30;;
62933;SDS011;49038;47.600;19.242;2023-07-13T08:55:40;2.75;;;1.50;;
62933;SDS011;49038;47.600;19.242;2023-07-13T08:58:43;1.20;;;0.93;;
62933;SDS011;49038;47.600;19.242;2023-07-13T09:01:51;1.90;;;1.25;;
62933;SDS011;49038;47.600;19.242;2023-07-13T09:05:02;3.00;;;1.17;;
62933;SDS011;49038;47.600;19.242;2023-07-13T09:14:48;3.45;;;1.20;;
62933;SDS011;49038;47.600;19.242;2023-07-13T09:17:52;2.30;;;0.98;;
62933;SDS011;49038;47.600;19.242;2023-07-13T09:21:20;3.05;;;1.30;;
62933;SDS011;49038;47.600;19.242;2023-07-13T09:24:35;2.75;;;1.15;;
62933;SDS011;49038;47.600;19.242;2023-07-13T09:27:44;1.73;;;1.37;;
62933;SDS011;49038;47.600;19.242;2023-07-13T09:34:26;3.75;;;1.10;;
62933;SDS011;49038;47.600;19.242;2023-07-13T09:37:30;2.67;;;1.10;;
62933;SDS011;49038;47.600;19.242;2023-07-13T09:44:15;2.37;;;1.23;;
62933;SDS011;49038;47.600;19.242;2023-07-13T09:47:33;2.42;;;1.23;;
62933;SDS011;49038;47.600;19.242;2023-07-13T09:50:41;1.65;;;1.20;;
62933;SDS011;49038;47.600;19.242;2023-07-13T09:53:44;2.75;;;1.30;;
62933;SDS011;49038;47.600;19.242;2023-07-13T09:56:47;1.58;;;1.25;;
62933;SDS011;49038;47.600;19.242;2023-07-13T09:59:50;1.50;;;1.00;;
62933;SDS011;49038;47.600;19.242;2023-07-13T10:03:03;2.30;;;1.20;;
62933;SDS011;49038;47.600;19.242;2023-07-13T10:06:14;3.28;;;1.20;;
62933;SDS011;49038;47.600;19.242;2023-07-13T10:09:20;3.33;;;1.08;;
62933;SDS011;49038;47.600;19.242;2023-07-13T10:12:24;2.05;;;1.20;;
62933;SDS011;49038;47.600;19.242;2023-07-13T10:15:27;1.23;;;1.05;;
62933;SDS011;49038;47.600;19.242;2023-07-13T10:18:29;3.85;;;1.85;;
62933;SDS011;49038;47.600;19.242;2023-07-13T10:21:39;1.80;;;1.50;;
62933;SDS011;49038;47.600;19.242;2023-07-13T10:24:51;3.40;;;1.45;;
62933;SDS011;49038;47.600;19.242;2023-07-13T10:27:56;2.22;;;1.30;;
62933;SDS011;49038;47.600;19.242;2023-07-13T10:31:02;3.70;;;1.87;;
62933;SDS011;49038;47.600;19.242;2023-07-13T10:34:11;1.55;;;1.30;;
62933;SDS011;49038;47.600;19.242;2023-07-13T10:37:15;1.87;;;1.52;;
62933;SDS011;49038;47.600;19.242;2023-07-13T10:40:24;1.60;;;1.23;;
62933;SDS011;49038;47.600;19.242;2023-07-13T10:43:33;2.95;;;1.67;;
62933;SDS011;49038;47.600;19.242;2023-07-13T10:46:40;3.40;;;1.52;;
62933;SDS011;49038;47.600;19.242;2023-07-13T10:49:43;1.62;;;1.40;;
62933;SDS011;49038;47.600;19.242;2023-07-13T10:59:02;2.10;;;1.37;;
62933;SDS011;49038;47.600;19.242;2023-07-13T11:02:26;2.33;;;1.50;;
62933;SDS011;49038;47.600;19.242;2023-07-13T11:05:32;2.90;;;1.52;;
62933;SDS011;49038;47.600;19.242;2023-07-13T11:08:36;1.80;;;1.60;;
62933;SDS011;49038;47.600;19.242;2023-07-13T11:11:40;3.08;;;1.70;;
62933;SDS011;49038;47.600;19.242;2023-07-13T11:14:44;1.67;;;1.37;;
62933;SDS011;49038;47.600;19.242;2023-07-13T11:18:19;1.85;;;1.40;;
62933;SDS011;49038;47.600;19.242;2023-07-13T11:21:26;4.10;;;1.30;;
62933;SDS011;49038;47.600;19.242;2023-07-13T11:25:20;3.45;;;1.50;;
62933;SDS011;49038;47.600;19.242;2023-07-13T11:31:14;1.50;;;1.10;;
62933;SDS011;49038;47.600;19.242;2023-07-13T11:34:18;1.30;;;1.20;;
62933;SDS011;49038;47.600;19.242;2023-07-13T11:37:28;1.05;;;0.95;;
62933;SDS011;49038;47.600;19.242;2023-07-13T11:40:31;1.70;;;1.25;;
62933;SDS011;49038;47.600;19.242;2023-07-13T11:43:34;1.40;;;1.10;;
62933;SDS011;49038;47.600;19.242;2023-07-13T11:46:36;2.10;;;1.27;;
62933;SDS011;49038;47.600;19.242;2023-07-13T11:49:47;1.25;;;1.12;;
62933;SDS011;49038;47.600;19.242;2023-07-13T11:52:51;3.05;;;1.48;;
62933;SDS011;49038;47.600;19.242;2023-07-13T11:55:56;3.60;;;1.17;;
62933;SDS011;49038;47.600;19.242;2023-07-13T11:59:03;3.58;;;1.35;;
62933;SDS011;49038;47.600;19.242;2023-07-13T12:02:15;1.52;;;0.93;;
62933;SDS011;49038;47.600;19.242;2023-07-13T12:05:20;1.33;;;1.00;;
62933;SDS011;49038;47.600;19.242;2023-07-13T12:08:23;2.35;;;1.10;;
62933;SDS011;49038;47.600;19.242;2023-07-13T12:11:26;1.95;;;1.08;;
62933;SDS011;49038;47.600;19.242;2023-07-13T12:14:28;1.62;;;1.33;;
62933;SDS011;49038;47.600;19.242;2023-07-13T12:17:31;1.20;;;1.10;;
62933;SDS011;49038;47.600;19.242;2023-07-13T12:20:35;1.35;;;1.05;;
62933;SDS011;49038;47.600;19.242;2023-07-13T12:23:39;1.70;;;1.10;;
62933;SDS011;49038;47.600;19.242;2023-07-13T12:26:50;1.00;;;0.90;;
62933;SDS011;49038;47.600;19.242;2023-07-13T12:30:23;1.10;;;1.00;;
62933;SDS011;49038;47.600;19.242;2023-07-13T12:33:32;1.83;;;1.10;;
62933;SDS011;49038;47.600;19.242;2023-07-13T12:36:36;1.40;;;1.20;;
62933;SDS011;49038;47.600;19.242;2023-07-13T12:39:46;2.08;;;1.23;;
62933;SDS011;49038;47.600;19.242;2023-07-13T12:42:50;2.53;;;1.42;;
62933;SDS011;49038;47.600;19.242;2023-07-13T12:45:54;3.05;;;1.02;;
62933;SDS011;49038;47.600;19.242;2023-07-13T12:48:58;1.42;;;1.20;;
62933;SDS011;49038;47.600;19.242;2023-07-13T12:52:22;1.50;;;1.00;;
62933;SDS011;49038;47.600;19.242;2023-07-13T12:55:26;1.37;;;1.12;;
62933;SDS011;49038;47.600;19.242;2023-07-13T12:58:40;1.95;;;1.37;;
62933;SDS011;49038;47.600;19.242;2023-07-13T13:01:45;1.27;;;1.12;;
62933;SDS011;49038;47.600;19.242;2023-07-13T13:04:48;1.15;;;1.00;;
62933;SDS011;49038;47.600;19.242;2023-07-13T13:07:51;1.98;;;1.25;;
62933;SDS011;49038;47.600;19.242;2023-07-13T13:10:53;1.52;;;1.30;;
62933;SDS011;49038;47.600;19.242;2023-07-13T13:13:56;1.92;;;1.73;;
62933;SDS011;49038;47.600;19.242;2023-07-13T13:16:58;1.73;;;1.35;;
62933;SDS011;49038;47.600;19.242;2023-07-13T13:20:01;1.42;;;1.30;;
62933;SDS011;49038;47.600;19.242;2023-07-13T13:23:04;2.08;;;1.50;;
62933;SDS011;49038;47.600;19.242;2023-07-13T13:26:10;1.48;;;1.17;;
62933;SDS011;49038;47.600;19.242;2023-07-13T13:29:18;3.08;;;1.27;;
62933;SDS011;49038;47.600;19.242;2023-07-13T13:32:22;2.12;;;1.48;;
62933;SDS011;49038;47.600;19.242;2023-07-13T13:35:24;1.92;;;1.30;;
62933;SDS011;49038;47.600;19.242;2023-07-13T13:38:28;2.10;;;1.50;;
62933;SDS011;49038;47.600;19.242;2023-07-13T13:41:31;1.67;;;1.40;;
62933;SDS011;49038;47.600;19.242;2023-07-13T13:44:33;2.00;;;1.40;;
62933;SDS011;49038;47.600;19.242;2023-07-13T13:47:35;1.70;;;1.30;;
62933;SDS011;49038;47.600;19.242;2023-07-13T13:50:38;2.17;;;1.30;;
62933;SDS011;49038;47.600;19.242;2023-07-13T13:53:41;2.70;;;1.37;;
62933;SDS011;49038;47.600;19.242;2023-07-13T13:56:44;3.25;;;1.25;;
62933;SDS011;49038;47.600;19.242;2023-07-13T13:59:47;2.10;;;1.50;;
62933;SDS011;49038;47.600;19.242;2023-07-13T14:02:49;2.55;;;1.40;;
62933;SDS011;49038;47.600;19.242;2023-07-13T14:05:53;2.17;;;1.33;;
62933;SDS011;49038;47.600;19.242;2023-07-13T14:08:56;3.87;;;1.40;;
62933;SDS011;49038;47.600;19.242;2023-07-13T14:11:59;4.80;;;2.15;;
62933;SDS011;49038;47.600;19.242;2023-07-13T14:15:01;3.78;;;1.50;;
62933;SDS011;49038;47.600;19.242;2023-07-13T14:18:03;2.58;;;1.48;;
62933;SDS011;49038;47.600;19.242;2023-07-13T14:21:16;1.37;;;1.20;;
62933;SDS011;49038;47.600;19.242;2023-07-13T14:24:20;2.92;;;1.45;;
62933;SDS011;49038;47.600;19.242;2023-07-13T14:27:23;3.92;;;1.20;;
62933;SDS011;49038;47.600;19.242;2023-07-13T14:30:26;1.52;;;1.20;;
62933;SDS011;49038;47.600;19.242;2023-07-13T14:33:28;3.30;;;1.10;;
62933;SDS011;49038;47.600;19.242;2023-07-13T14:39:35;1.25;;;1.10;;
62933;SDS011;49038;47.600;19.242;2023-07-13T14:42:37;1.85;;;1.23;;
62933;SDS011;49038;47.600;19.242;2023-07-13T14:45:41;2.25;;;1.50;;
62933;SDS011;49038;47.600;19.242;2023-07-13T14:48:51;2.83;;;1.50;;
62933;SDS011;49038;47.600;19.242;2023-07-13T14:51:55;2.42;;;1.45;;
62933;SDS011;49038;47.600;19.242;2023-07-13T14:54:59;2.80;;;1.30;;
62933;SDS011;49038;47.600;19.242;2023-07-13T14:58:01;1.95;;;1.20;;
62933;SDS011;49038;47.600;19.242;2023-07-13T15:01:04;4.18;;;1.30;;
62933;SDS011;49038;47.600;19.242;2023-07-13T15:04:06;2.90;;;1.23;;
62933;SDS011;49038;47.600;19.242;2023-07-13T15:07:10;1.67;;;0.98;;
62933;SDS011;49038;47.600;19.242;2023-07-13T15:10:17;1.40;;;1.10;;
62933;SDS011;49038;47.600;19.242;2023-07-13T15:13:21;1.37;;;1.27;;
62933;SDS011;49038;47.600;19.242;2023-07-13T15:16:25;1.87;;;1.17;;
62933;SDS011;49038;47.600;19.242;2023-07-13T15:19:28;3.35;;;1.35;;
62933;SDS011;49038;47.600;19.242;2023-07-13T15:22:31;1.80;;;1.23;;
62933;SDS011;49038;47.600;19.242;2023-07-13T15:25:33;2.45;;;1.42;;
62933;SDS011;49038;47.600;19.242;2023-07-13T15:28:36;4.62;;;3.15;;
62933;SDS011;49038;47.600;19.242;2023-07-13T15:31:38;1.90;;;1.37;;
62933;SDS011;49038;47.600;19.242;2023-07-13T15:34:41;2.05;;;1.40;;
62933;SDS011;49038;47.600;19.242;2023-07-13T15:37:44;2.95;;;1.12;;
62933;SDS011;49038;47.600;19.242;2023-07-13T15:40:47;1.87;;;1.20;;
62933;SDS011;49038;47.600;19.242;2023-07-13T15:43:51;1.55;;;1.15;;
62933;SDS011;49038;47.600;19.242;2023-07-13T15:46:55;1.25;;;1.10;;
62933;SDS011;49038;47.600;19.242;2023-07-13T15:49:58;1.77;;;1.20;;
62933;SDS011;49038;47.600;19.242;2023-07-13T15:53:00;3.33;;;1.45;;
62933;SDS011;49038;47.600;19.242;2023-07-13T15:56:26;2.37;;;1.40;;
62933;SDS011;49038;47.600;19.242;2023-07-13T15:59:30;2.53;;;1.50;;
62933;SDS011;49038;47.600;19.242;2023-07-13T16:02:32;1.80;;;1.27;;
62933;SDS011;49038;47.600;19.242;2023-07-13T16:05:35;1.62;;;1.30;;
62933;SDS011;49038;47.600;19.242;2023-07-13T16:08:37;1.35;;;1.08;;
62933;SDS011;49038;47.600;19.242;2023-07-13T16:11:42;2.40;;;1.70;;
62933;SDS011;49038;47.600;19.242;2023-07-13T16:14:45;1.77;;;1.30;;
62933;SDS011;49038;47.600;19.242;2023-07-13T16:17:47;2.17;;;1.55;;
62933;SDS011;49038;47.600;19.242;2023-07-13T16:20:51;1.90;;;1.40;;
62933;SDS011;49038;47.600;19.242;2023-07-13T16:23:55;2.28;;;1.40;;
62933;SDS011;49038;47.600;19.242;2023-07-13T16:27:06;1.95;;;1.55;;
62933;SDS011;49038;47.600;19.242;2023-07-13T16:33:20;3.20;;;1.45;;
62933;SDS011;49038;47.600;19.242;2023-07-13T16:36:24;1.73;;;1.30;;
62933;SDS011;49038;47.600;19.242;2023-07-13T16:39:27;1.85;;;1.10;;
62933;SDS011;49038;47.600;19.242;2023-07-13T16:42:29;2.55;;;1.65;;
62933;SDS011;49038;47.600;19.242;2023-07-13T16:45:33;2.05;;;1.12;;
62933;SDS011;49038;47.600;19.242;2023-07-13T16:48:40;4.87;;;1.42;;
62933;SDS011;49038;47.600;19.242;2023-07-13T16:51:43;3.42;;;1.33;;
62933;SDS011;49038;47.600;19.242;2023-07-13T16:54:46;2.47;;;1.40;;
62933;SDS011;49038;47.600;19.242;2023-07-13T16:57:48;1.70;;;1.20;;
62933;SDS011;49038;47.600;19.242;2023-07-13T17:00:51;2.55;;;1.55;;
62933;SDS011;49038;47.600;19.242;2023-07-13T17:03:54;2.15;;;1.45;;
62933;SDS011;49038;47.600;19.242;2023-07-13T17:07:02;1.85;;;1.20;;
62933;SDS011;49038;47.600;19.242;2023-07-13T17:10:10;2.10;;;1.30;;
62933;SDS011;49038;47.600;19.242;2023-07-13T17:13:19;3.00;;;1.67;;
62933;SDS011;49038;47.600;19.242;2023-07-13T17:16:22;2.67;;;1.42;;
62933;SDS011;49038;47.600;19.242;2023-07-13T17:19:28;2.50;;;1.55;;
62933;SDS011;49038;47.600;19.242;2023-07-13T17:22:31;2.95;;;1.40;;
62933;SDS011;49038;47.600;19.242;2023-07-13T17:25:33;2.30;;;1.58;;
62933;SDS011;49038;47.600;19.242;2023-07-13T17:28:37;2.40;;;1.45;;
62933;SDS011;49038;47.600;19.242;2023-07-13T17:31:39;1.58;;;1.23;;
62933;SDS011;49038;47.600;19.242;2023-07-13T17:34:42;2.87;;;1.50;;
62933;SDS011;49038;47.600;19.242;2023-07-13T17:37:47;1.83;;;1.27;;
62933;SDS011;49038;47.600;19.242;2023-07-13T17:40:50;1.60;;;1.23;;
62933;SDS011;49038;47.600;19.242;2023-07-13T17:43:53;3.15;;;1.35;;
62933;SDS011;49038;47.600;19.242;2023-07-13T17:46:55;3.05;;;1.12;;
62933;SDS011;49038;47.600;19.242;2023-07-13T17:49:58;2.25;;;1.17;;
62933;SDS011;49038;47.600;19.242;2023-07-13T17:53:05;1.10;;;1.00;;
62933;SDS011;49038;47.600;19.242;2023-07-13T17:56:11;1.95;;;1.15;;
62933;SDS011;49038;47.600;19.242;2023-07-13T17:59:15;1.02;;;0.90;;
62933;SDS011;49038;47.600;19.242;2023-07-13T18:02:20;2.40;;;1.25;;
62933;SDS011;49038;47.600;19.242;2023-07-13T18:05:23;4.82;;;1.42;;
62933;SDS011;49038;47.600;19.242;2023-07-13T18:08:27;1.83;;;1.05;;
62933;SDS011;49038;47.600;19.242;2023-07-13T18:11:33;1.10;;;0.93;;
62933;SDS011;49038;47.600;19.242;2023-07-13T18:14:36;1.67;;;1.37;;
62933;SDS011;49038;47.600;19.242;2023-07-13T18:17:39;1.62;;;1.00;;
62933;SDS011;49038;47.600;19.242;2023-07-13T18:20:42;3.72;;;1.25;;
62933;SDS011;49038;47.600;19.242;2023-07-13T18:23:46;1.40;;;0.95;;
62933;SDS011;49038;47.600;19.242;2023-07-13T18:26:49;0.98;;;0.88;;
62933;SDS011;49038;47.600;19.242;2023-07-13T18:29:52;1.02;;;0.62;;
62933;SDS011;49038;47.600;19.242;2023-07-13T18:32:56;1.48;;;0.98;;
62933;SDS011;49038;47.600;19.242;2023-07-13T18:36:00;1.45;;;1.00;;
62933;SDS011;49038;47.600;19.242;2023-07-13T18:39:05;1.98;;;0.88;;
62933;SDS011;49038;47.600;19.242;2023-07-13T18:42:11;1.00;;;0.85;;